^^
Grace C. Lehan Memorial Weather Station Historical Data
Daily Summary for June 20, 2021 Units:  English    Metric   Both
Daily Weekly Monthly Yearly
  High: Low: Average:
Temperature: 88.1 °F 65.2 °F 78.6 °F
Dew Point: 70.1 °F 63.4 °F 67.3 °F
Humidity: 94% 49.6% 70%
Wind Speed: 2mph 0mph 0.3mph
Wind Gust: 10mph - -
Wind- - SW
Pressure: 29.79 in 29.71 in -
Precipitation: 0.00 in    
 
 
Tabular Data for June 20, 2021
Time Temperature Dew Point Pressure Wind Wind Speed Wind Gust Humidity Rainfall Rate (Hourly) solar
00:00 67.9 °F 65.8 °F 29.73 in Calm     93% 0.01 in 0 W/m2
00:09 67.9 °F 65.8 °F 29.73 in Calm     93% 0.01 in 0 W/m2
00:14 67.9 °F 65.8 °F 29.73 in Calm     93% 0.01 in 0 W/m2
00:19 67.9 °F 66 °F 29.73 in Calm     93.6% 0.01 in 0 W/m2
00:24 67.9 °F 66.1 °F 29.72 in Calm     94% 0.01 in 0 W/m2
00:29 67.9 °F 66.1 °F 29.73 in Calm     94% 0.01 in 0 W/m2
00:34 67.9 °F 66.1 °F 29.73 in Calm     93.9% 0.01 in 0 W/m2
00:39 67.9 °F 66.1 °F 29.73 in Calm     94% 0.00 in 0 W/m2
00:44 67.9 °F 66.1 °F 29.73 in Calm     94% 0.00 in 0 W/m2
00:49 67.8 °F 66 °F 29.73 in Calm     94% 0.00 in 0 W/m2
00:54 67.8 °F 66 °F 29.73 in Calm     94% 0.00 in 0 W/m2
00:59 67.8 °F 66 °F 29.73 in Calm     94% 0.00 in 0 W/m2
01:04 67.7 °F 65.9 °F 29.73 in Calm     93.8% 0.00 in 0 W/m2
01:09 67.7 °F 65.6 °F 29.73 in Calm     93% 0.00 in 0 W/m2
01:14 67.7 °F 65.8 °F 29.73 in Calm     93.8% 0.00 in 0 W/m2
01:19 67.6 °F 65.8 °F 29.73 in Calm     94% 0.00 in 0 W/m2
01:24 67.5 °F 65.6 °F 29.73 in Calm     93.5% 0.00 in 0 W/m2
01:29 67.5 °F 65.4 °F 29.73 in Calm     93% 0.00 in 0 W/m2
01:34 67.4 °F 65.5 °F 29.73 in Calm     93.8% 0.00 in 0 W/m2
01:39 67.4 °F 65.6 °F 29.74 in Calm     94% 0.00 in 0 W/m2
01:44 67.4 °F 65.5 °F 29.73 in Calm     93.8% 0.00 in 0 W/m2
01:49 67.3 °F 65.2 °F 29.74 in Calm     93% 0.00 in 0 W/m2
01:54 67.2 °F 65.2 °F 29.74 in Calm     93.4% 0.00 in 0 W/m2
01:59 67.2 °F 65.2 °F 29.73 in Calm     93.2% 0.00 in 0 W/m2
02:04 67.2 °F 65.4 °F 29.74 in Calm     93.9% 0.00 in 0 W/m2
02:09 67.2 °F 65.4 °F 29.74 in Calm     94% 0.00 in 0 W/m2
02:14 67.2 °F 65.4 °F 29.74 in Calm     94% 0.00 in 0 W/m2
02:19 67.2 °F 65.4 °F 29.74 in Calm     94% 0.00 in 0 W/m2
02:24 67.2 °F 65.4 °F 29.74 in Calm     94% 0.00 in 0 W/m2
02:29 67.2 °F 65.4 °F 29.74 in Calm     94% 0.00 in 0 W/m2
02:34 67.1 °F 65.2 °F 29.74 in Calm     93.6% 0.00 in 0 W/m2
02:39 67 °F 64.9 °F 29.74 in Calm     93% 0.00 in 0 W/m2
02:43 66.8 °F 64.8 °F 29.74 in Calm     93% 0.00 in 0 W/m2
02:49 66.7 °F 64.6 °F 29.74 in Calm     93% 0.00 in 0 W/m2
02:54 66.5 °F 64.4 °F 29.74 in Calm     93% 0.00 in 0 W/m2
02:59 66.4 °F 64.3 °F 29.73 in Calm     93% 0.00 in 0 W/m2
03:04 66.3 °F 64.2 °F 29.73 in Calm     93% 0.00 in 0 W/m2
03:09 66.2 °F 64.1 °F 29.74 in Calm     93% 0.00 in 0 W/m2
03:14 66.2 °F 64.1 °F 29.74 in Calm     93% 0.00 in 0 W/m2
03:19 66.2 °F 64.2 °F 29.74 in Calm     93% 0.00 in 0 W/m2
03:24 66.3 °F 64.2 °F 29.74 in Calm     93% 0.00 in 0 W/m2
03:29 66.3 °F 64.2 °F 29.74 in Calm     93% 0.00 in 0 W/m2
03:34 66.2 °F 64.1 °F 29.74 in Calm     92.8% 0.00 in 0 W/m2
03:39 66.1 °F 63.7 °F 29.74 in Calm     92% 0.00 in 0 W/m2
03:44 66 °F 63.6 °F 29.74 in Calm     92% 0.00 in 0 W/m2
03:49 66 °F 63.8 °F 29.74 in Calm     92.7% 0.00 in 0 W/m2
03:54 66 °F 63.9 °F 29.74 in Calm     93% 0.00 in 0 W/m2
03:59 66 °F 63.9 °F 29.74 in SSW 0.2 mph 3 mph 93% 0.00 in 0 W/m2
04:00 66.1 °F 64 °F 29.74 in Calm   3 mph 93% 0.00 in 0 W/m2
04:09 66.1 °F 64 °F 29.74 in Calm     93% 0.00 in 0 W/m2
04:14 66.1 °F 64 °F 29.74 in Calm     93% 0.00 in 0 W/m2
04:16 66.1 °F 64 °F 29.74 in Calm     93% 0.00 in 0 W/m2
04:30 66.1 °F 64 °F 29.74 in Calm     93% 0.00 in 0 W/m2
05:00 66.1 °F 64.3 °F 29.75 in Calm     94% 0.00 in 0 W/m2
05:30 66 °F 64.2 °F 29.74 in Calm     94% 0.00 in 0 W/m2
06:00 65.4 °F 63.6 °F 29.76 in Calm     94% 0.00 in 7 W/m2
06:30 65.2 °F 63.4 °F 29.77 in Calm     94% 0.00 in 17 W/m2
07:00 67.7 °F 65.6 °F 29.77 in Calm   1 mph 93% 0.00 in 50 W/m2
07:30 72.9 °F 66.4 °F 29.78 in Calm     80% 0.00 in 116 W/m2
08:09 75.7 °F 66.2 °F 29.78 in Calm     72.5% 0.00 in 476 W/m2
08:14 76 °F 66.5 °F 29.78 in Calm   1 mph 72.5% 0.00 in 494 W/m2
08:19 76.4 °F 66.7 °F 29.79 in Calm   1 mph 72% 0.00 in 513 W/m2
08:24 76.7 °F 66.1 °F 29.79 in SSE 0.2 mph 3 mph 69.7% 0.00 in 526 W/m2
08:29 77.1 °F 66.6 °F 29.79 in Calm   3 mph 69.9% 0.00 in 541 W/m2
08:34 77.5 °F 66.5 °F 29.79 in Calm   3 mph 69% 0.00 in 557 W/m2
08:39 77.6 °F 66 °F 29.79 in Calm     67.6% 0.00 in 577 W/m2
08:44 77.9 °F 66.6 °F 29.79 in Calm     68.5% 0.00 in 592 W/m2
08:49 78.2 °F 66.2 °F 29.79 in Calm   1 mph 66.8% 0.00 in 606 W/m2
08:54 78.3 °F 66.6 °F 29.79 in SSE 0.4 mph 4 mph 67.2% 0.00 in 621 W/m2
08:59 78.6 °F 66.7 °F 29.79 in West 0.2 mph 4 mph 66.9% 0.00 in 636 W/m2
09:04 79 °F 66 °F 29.79 in Calm   4 mph 64.6% 0.00 in 652 W/m2
09:09 79.2 °F 66.1 °F 29.79 in Calm     64.2% 0.00 in 677 W/m2
09:14 79.5 °F 66.3 °F 29.79 in WNW 0.1 mph 3 mph 64.2% 0.00 in 686 W/m2
09:19 79.7 °F 66.5 °F 29.78 in Calm   3 mph 64% 0.00 in 696 W/m2
09:24 79.8 °F 66.9 °F 29.78 in Calm   3 mph 64.6% 0.00 in 700 W/m2
09:29 79.9 °F 66.8 °F 29.78 in Calm   3 mph 64.2% 0.00 in 712 W/m2
09:34 80.3 °F 67.1 °F 29.78 in WNW 0.1 mph 3 mph 64.2% 0.00 in 733 W/m2
09:39 80.5 °F 66.2 °F 29.77 in Calm   2 mph 61.9% 0.00 in 719 W/m2
09:44 80.7 °F 66.8 °F 29.77 in WNW 0.9 mph 4 mph 62.7% 0.00 in 788 W/m2
09:49 80.8 °F 66.5 °F 29.77 in Calm   4 mph 62% 0.00 in 721 W/m2
09:54 80.7 °F 66.6 °F 29.77 in Calm   4 mph 62.3% 0.00 in 677 W/m2
09:59 80.7 °F 66.4 °F 29.77 in Calm   4 mph 61.7% 0.00 in 724 W/m2
10:04 80.7 °F 66.5 °F 29.77 in Calm   4 mph 62.1% 0.00 in 735 W/m2
10:09 80.6 °F 66.1 °F 29.77 in WNW 0.2 mph 3 mph 61.4% 0.00 in 777 W/m2
10:14 80.8 °F 65.6 °F 29.77 in Calm   3 mph 59.9% 0.00 in 805 W/m2
10:19 81.2 °F 66.1 °F 29.77 in Calm   3 mph 60.2% 0.00 in 765 W/m2
10:24 81.5 °F 66.7 °F 29.77 in WNW 0.3 mph 3 mph 60.9% 0.00 in 689 W/m2
10:29 81.8 °F 66.8 °F 29.77 in Calm   3 mph 60.6% 0.00 in 740 W/m2
10:34 82.1 °F 67 °F 29.77 in Calm   3 mph 60.3% 0.00 in 749 W/m2
10:39 82.5 °F 66.1 °F 29.77 in NW 0.1 mph 2 mph 57.7% 0.00 in 793 W/m2
10:44 82.6 °F 65.8 °F 29.77 in Calm   2 mph 56.8% 0.00 in 809 W/m2
10:49 82.7 °F 66.3 °F 29.76 in Calm   2 mph 57.8% 0.00 in 809 W/m2
10:54 82.9 °F 66.2 °F 29.76 in Calm   2 mph 57.1% 0.00 in 840 W/m2
10:59 83.2 °F 66.5 °F 29.76 in Calm   2 mph 57.2% 0.00 in 807 W/m2
11:04 83.5 °F 66.7 °F 29.76 in NNW 0.1 mph 2 mph 57.2% 0.00 in 835 W/m2
11:09 83.5 °F 66.3 °F 29.76 in NW 1 mph 5 mph 56.3% 0.00 in 816 W/m2
11:14 83.4 °F 66 °F 29.77 in NW 0.5 mph 5 mph 55.8% 0.00 in 863 W/m2
11:19 83.6 °F 67.2 °F 29.77 in Calm   5 mph 57.9% 0.00 in 831 W/m2
11:24 84 °F 67.5 °F 29.77 in Calm   5 mph 57.8% 0.00 in 984 W/m2
11:29 84.3 °F 67 °F 29.76 in Calm   5 mph 56.2% 0.00 in 833 W/m2
11:34 84.3 °F 66.5 °F 29.76 in NW 0.5 mph 5 mph 55.4% 0.00 in 803 W/m2
11:38 84.2 °F 66.5 °F 29.76 in Calm   5 mph 55.3% 0.00 in 926 W/m2
12:09 85.6 °F 67.5 °F 29.76 in WNW 0.6 mph 4 mph 54.8% 0.00 in 1053 W/m2
12:14 85.6 °F 65.8 °F 29.76 in Calm   4 mph 51.7% 0.00 in 1025 W/m2
12:19 85.6 °F 67.1 °F 29.76 in Calm   4 mph 54.1% 0.00 in 772 W/m2
12:24 85.8 °F 67.2 °F 29.76 in Calm   4 mph 54% 0.00 in 779 W/m2
12:29 85.8 °F 66.9 °F 29.76 in Calm   4 mph 53.4% 0.00 in 737 W/m2
12:34 85.6 °F 66.9 °F 29.76 in WNW 0.1 mph 4 mph 53.8% 0.00 in 1053 W/m2
12:39 85.6 °F 66.4 °F 29.76 in WNW 0.5 mph 4 mph 52.9% 0.00 in 1085 W/m2
12:44 85.5 °F 66.6 °F 29.76 in WNW 0.9 mph 4 mph 53.2% 0.00 in 1046 W/m2
12:49 85.9 °F 67.6 °F 29.76 in WNW 0.5 mph 4 mph 54.5% 0.00 in 1046 W/m2
12:54 86.3 °F 67.1 °F 29.76 in WNW 1 mph 5 mph 53% 0.00 in 990 W/m2
12:59 86.4 °F 66.5 °F 29.76 in ESE 0.4 mph 5 mph 51.7% 0.00 in 998 W/m2
13:04 86.3 °F 66.4 °F 29.76 in ESE 0.2 mph 5 mph 51.7% 0.00 in 1000 W/m2
13:09 86.1 °F 66.8 °F 29.76 in ESE 0.1 mph 3 mph 52.6% 0.00 in 988 W/m2
13:14 86.1 °F 66.4 °F 29.75 in East 0.9 mph 5 mph 51.9% 0.00 in 984 W/m2
13:19 86.4 °F 67.3 °F 29.75 in WNW 1.6 mph 5 mph 53% 0.00 in 988 W/m2
13:24 86.7 °F 66.5 °F 29.75 in WNW 0.4 mph 5 mph 51.2% 0.00 in 986 W/m2
13:29 86.4 °F 65.6 °F 29.75 in WNW 0.8 mph 5 mph 50% 0.00 in 984 W/m2
13:34 86.2 °F 66.7 °F 29.74 in WNW 0.6 mph 5 mph 52.3% 0.00 in 1013 W/m2
13:39 86.1 °F 66.5 °F 29.74 in SSE 0.7 mph 4 mph 52.1% 0.00 in 1030 W/m2
13:44 85.8 °F 66.1 °F 29.74 in SE 0.5 mph 4 mph 52% 0.00 in 1016 W/m2
13:49 85.7 °F 66.1 °F 29.74 in SE 0.2 mph 4 mph 52% 0.00 in 1005 W/m2
13:54 85.9 °F 66.9 °F 29.74 in SE 1.2 mph 4 mph 53.3% 0.00 in 1004 W/m2
13:59 86.2 °F 67.5 °F 29.74 in SE 0.5 mph 4 mph 53.8% 0.00 in 976 W/m2
14:04 86.5 °F 68.1 °F 29.73 in SSE 1.8 mph 5 mph 54.5% 0.00 in 963 W/m2
14:09 86.9 °F 67.7 °F 29.73 in SW 1.4 mph 6 mph 53% 0.00 in 947 W/m2
14:14 87.2 °F 67.6 °F 29.73 in West 1 mph 6 mph 52.3% 0.00 in 946 W/m2
14:19 87.2 °F 66.6 °F 29.73 in WSW 0.6 mph 6 mph 50.5% 0.00 in 933 W/m2
14:24 86.9 °F 66.2 °F 29.73 in SSW 1.2 mph 6 mph 50.3% 0.00 in 935 W/m2
14:29 86.6 °F 66.6 °F 29.73 in SSW 1.2 mph 7 mph 51.4% 0.00 in 939 W/m2
14:34 86.5 °F 66.6 °F 29.73 in SE 0.8 mph 7 mph 51.7% 0.00 in 939 W/m2
14:39 86.3 °F 66.7 °F 29.73 in WSW 1.4 mph 7 mph 52.2% 0.00 in 912 W/m2
14:44 86.5 °F 67.7 °F 29.73 in WSW 1.1 mph 7 mph 53.6% 0.00 in 916 W/m2
14:49 86.9 °F 66.7 °F 29.73 in WSW 0.5 mph 7 mph 51.1% 0.00 in 932 W/m2
14:54 87.3 °F 67.4 °F 29.72 in WSW 1.1 mph 7 mph 51.9% 0.00 in 932 W/m2
14:59 87.6 °F 67 °F 29.72 in SW 0.4 mph 7 mph 50.5% 0.00 in 888 W/m2
15:04 87.9 °F 67.8 °F 29.72 in SW 1.3 mph 7 mph 51.5% 0.00 in 877 W/m2
15:09 88.1 °F 67.8 °F 29.72 in WSW 0.7 mph 5 mph 51.2% 0.00 in 868 W/m2
15:14 88.1 °F 67.5 °F 29.72 in WSW 0.8 mph 6 mph 50.6% 0.00 in 851 W/m2
15:19 88.1 °F 67.7 °F 29.73 in WSW 1.3 mph 9 mph 51% 0.00 in 842 W/m2
15:24 88.1 °F 66.9 °F 29.73 in West 0.7 mph 9 mph 49.6% 0.00 in 835 W/m2
15:29 88 °F 67.1 °F 29.72 in WSW 0.3 mph 9 mph 50.2% 0.00 in 879 W/m2
15:34 87.9 °F 67.9 °F 29.72 in WSW 0.5 mph 9 mph 51.7% 0.00 in 909 W/m2
15:39 87.9 °F 68.4 °F 29.72 in WSW 1.2 mph 6 mph 52.5% 0.00 in 889 W/m2
15:44 87.8 °F 67.8 °F 29.72 in SW 0.5 mph 6 mph 51.6% 0.00 in 812 W/m2
15:49 87.6 °F 67.2 °F 29.72 in SSW 0.8 mph 6 mph 50.8% 0.00 in 800 W/m2
15:54 87.5 °F 67.7 °F 29.72 in SSW 0.2 mph 6 mph 51.9% 0.00 in 833 W/m2
15:59 87.6 °F 68.5 °F 29.72 in SW 1.9 mph 10 mph 53.1% 0.00 in 796 W/m2
16:00 87.7 °F 68.5 °F 29.72 in Calm   10 mph 53% 0.00 in 768 W/m2
16:09 88.1 °F 69.1 °F 29.71 in WSW 0.7 mph 3 mph 53.5% 0.00 in 795 W/m2
16:14 87.8 °F 68.7 °F 29.71 in WSW 0.9 mph 5 mph 53.3% 0.00 in 793 W/m2
16:19 87.4 °F 68.5 °F 29.72 in WSW 0.2 mph 5 mph 53.5% 0.00 in 172 W/m2
16:24 87.2 °F 68.9 °F 29.72 in WSW 0.5 mph 5 mph 54.6% 0.00 in 141 W/m2
16:29 87.1 °F 68.5 °F 29.72 in SW 0.7 mph 5 mph 54% 0.00 in 130 W/m2
16:34 86.7 °F 68.5 °F 29.72 in SW 0.3 mph 5 mph 54.6% 0.00 in 137 W/m2
16:39 86.3 °F 68.7 °F 29.73 in SW 0.7 mph 3 mph 55.8% 0.00 in 151 W/m2
16:44 85.9 °F 69 °F 29.73 in SW 0.7 mph 4 mph 57.2% 0.00 in 148 W/m2
16:49 85.7 °F 69.2 °F 29.73 in SW 0.4 mph 5 mph 57.9% 0.00 in 134 W/m2
16:54 85.6 °F 68.9 °F 29.72 in SW 1.1 mph 5 mph 57.5% 0.00 in 130 W/m2
16:59 85.2 °F 68.4 °F 29.72 in SW 0.3 mph 5 mph 57.2% 0.00 in 77 W/m2
17:04 84.8 °F 68.2 °F 29.72 in SSW 0.8 mph 5 mph 57.7% 0.00 in 90 W/m2
17:09 84.3 °F 68 °F 29.72 in SSW 1.3 mph 7 mph 58.1% 0.00 in 132 W/m2
17:14 83.9 °F 68.2 °F 29.72 in SSW 0.3 mph 7 mph 59.3% 0.00 in 98 W/m2
17:19 83.9 °F 68.4 °F 29.72 in SSW 1.1 mph 7 mph 59.7% 0.00 in 63 W/m2
17:24 84 °F 68.3 °F 29.72 in South 0.6 mph 7 mph 59.4% 0.00 in 76 W/m2
17:29 84.1 °F 68.5 °F 29.72 in South 0.4 mph 7 mph 59.7% 0.00 in 69 W/m2
17:34 84.3 °F 68.8 °F 29.72 in South 0.2 mph 7 mph 59.8% 0.00 in 62 W/m2
17:39 84.3 °F 68.8 °F 29.71 in Calm   5 mph 59.7% 0.00 in 49 W/m2
17:44 84.3 °F 68.9 °F 29.72 in Calm   5 mph 60% 0.00 in 74 W/m2
17:49 84.2 °F 69.4 °F 29.71 in Calm   5 mph 61.2% 0.00 in 74 W/m2
17:54 84.3 °F 68.9 °F 29.71 in Calm   5 mph 60% 0.00 in 53 W/m2
17:59 84.5 °F 68.9 °F 29.71 in South 0.1 mph 5 mph 59.6% 0.00 in 39 W/m2
18:04 84.7 °F 68.9 °F 29.71 in SSW 0.2 mph 5 mph 59.3% 0.00 in 39 W/m2
18:09 84.9 °F 68.9 °F 29.72 in SSW 0.2 mph 4 mph 58.9% 0.00 in 42 W/m2
18:14 85 °F 68.8 °F 29.72 in SSW 0.2 mph 4 mph 58.5% 0.00 in 53 W/m2
18:19 85.1 °F 68.8 °F 29.72 in SSW 1.9 mph 5 mph 58.1% 0.00 in 53 W/m2
18:24 85.2 °F 68.7 °F 29.72 in SSW 1 mph 5 mph 57.8% 0.00 in 49 W/m2
18:29 85.4 °F 69 °F 29.72 in SW 2 mph 6 mph 58.1% 0.00 in 42 W/m2
18:34 85.4 °F 68.6 °F 29.72 in SW 1 mph 6 mph 57.2% 0.00 in 35 W/m2
18:39 85.4 °F 69 °F 29.72 in WSW 1 mph 4 mph 58.1% 0.00 in 32 W/m2
18:44 85.3 °F 68.9 °F 29.72 in WSW 1.7 mph 6 mph 58.1% 0.00 in 32 W/m2
18:49 85.1 °F 68.7 °F 29.73 in WSW 0.7 mph 6 mph 58.2% 0.00 in 30 W/m2
18:54 84.7 °F 69.2 °F 29.73 in SW 0.7 mph 6 mph 59.6% 0.00 in 26 W/m2
18:59 84.2 °F 69.5 °F 29.73 in SSW 0.7 mph 6 mph 61.4% 0.00 in 30 W/m2
19:04 83.7 °F 69.7 °F 29.73 in SW 0.6 mph 6 mph 62.8% 0.00 in 28 W/m2
19:09 83.2 °F 69.9 °F 29.73 in SW 0.7 mph 6 mph 64.3% 0.00 in 19 W/m2
19:14 82.8 °F 69.9 °F 29.73 in SSW 0.5 mph 6 mph 65% 0.00 in 25 W/m2
19:19 82.5 °F 69.9 °F 29.73 in SW 0.4 mph 6 mph 65.9% 0.00 in 19 W/m2
19:24 82.2 °F 69.8 °F 29.74 in SSW 0.3 mph 6 mph 66.4% 0.00 in 16 W/m2
19:29 81.9 °F 69.9 °F 29.74 in SSW 0.4 mph 6 mph 67% 0.00 in 14 W/m2
19:34 81.7 °F 70.1 °F 29.74 in SW 0.8 mph 6 mph 68% 0.00 in 16 W/m2
19:39 81.4 °F 69.8 °F 29.73 in SW 0.5 mph 5 mph 68% 0.00 in 12 W/m2
19:44 81.1 °F 69.7 °F 29.74 in WSW 1.1 mph 6 mph 68.3% 0.00 in 9 W/m2
19:49 80.9 °F 69.8 °F 29.74 in SSW 0.5 mph 6 mph 69% 0.00 in 7 W/m2
19:54 80.7 °F 69.7 °F 29.74 in SW 0.1 mph 6 mph 69.2% 0.00 in 9 W/m2
19:59 80.5 °F 69.9 °F 29.74 in SW 0.1 mph 6 mph 70% 0.00 in 7 W/m2
20:04 80.3 °F 69.7 °F 29.74 in Calm   6 mph 70% 0.00 in 7 W/m2
20:09 80.2 °F 69.8 °F 29.74 in Calm     70.5% 0.00 in 7 W/m2
20:14 80.1 °F 69.8 °F 29.74 in SSW 0.2 mph 2 mph 71% 0.00 in 5 W/m2
20:19 79.9 °F 69.7 °F 29.74 in SSW 0.1 mph 2 mph 71% 0.00 in 5 W/m2
20:24 79.7 °F 69.6 °F 29.74 in SSW 0.7 mph 3 mph 71.2% 0.00 in 0 W/m2
20:29 79.5 °F 69.7 °F 29.74 in Calm   3 mph 72% 0.00 in 0 W/m2
20:34 79.4 °F 69.9 °F 29.74 in Calm   3 mph 72.8% 0.00 in 0 W/m2
20:39 79.4 °F 70 °F 29.74 in SSW 0.1 mph 2 mph 73% 0.00 in 0 W/m2
20:44 79.2 °F 69.8 °F 29.75 in SSW 0.2 mph 4 mph 73% 0.00 in 0 W/m2
20:49 79.1 °F 69.8 °F 29.75 in WSW 0.1 mph 4 mph 73.2% 0.00 in 0 W/m2
20:54 78.9 °F 69.9 °F 29.75 in WSW 0.2 mph 4 mph 74% 0.00 in 0 W/m2
20:59 78.7 °F 69.8 °F 29.75 in WSW 0.2 mph 5 mph 74% 0.00 in 0 W/m2
21:04 78.6 °F 69.7 °F 29.75 in WSW 0.1 mph 5 mph 74% 0.00 in 0 W/m2
21:09 78.5 °F 69.6 °F 29.75 in Calm   2 mph 74.3% 0.00 in 0 W/m2
21:14 78.4 °F 69.8 °F 29.75 in Calm   2 mph 75% 0.00 in 0 W/m2
21:19 78.3 °F 69.7 °F 29.76 in Calm   2 mph 75% 0.00 in 0 W/m2
21:24 78.2 °F 69.6 °F 29.76 in Calm   2 mph 75% 0.00 in 0 W/m2
21:29 78.1 °F 69.5 °F 29.76 in Calm   2 mph 75.1% 0.00 in 0 W/m2
21:34 77.9 °F 69.8 °F 29.76 in WSW 0.1 mph 2 mph 76% 0.00 in 0 W/m2
21:39 77.8 °F 69.6 °F 29.76 in WSW 0.1 mph 2 mph 76% 0.00 in 0 W/m2
21:44 77.7 °F 69.5 °F 29.76 in Calm   2 mph 76% 0.00 in 0 W/m2
21:49 77.5 °F 69.6 °F 29.76 in WSW 0.1 mph 3 mph 76.7% 0.00 in 0 W/m2
21:54 77.4 °F 69.6 °F 29.77 in Calm   3 mph 77% 0.00 in 0 W/m2
21:59 77.3 °F 69.5 °F 29.77 in Calm   3 mph 77% 0.00 in 0 W/m2
22:04 77.1 °F 69.6 °F 29.77 in Calm   3 mph 77.7% 0.00 in 0 W/m2
22:09 77 °F 69.6 °F 29.77 in Calm     78% 0.00 in 0 W/m2
22:14 76.9 °F 69.5 °F 29.77 in Calm     78% 0.00 in 0 W/m2
22:19 76.7 °F 69.6 °F 29.76 in WSW 0.1 mph 2 mph 78.5% 0.00 in 0 W/m2
22:24 76.6 °F 69.6 °F 29.77 in Calm   2 mph 79% 0.00 in 0 W/m2
22:29 76.5 °F 69.5 °F 29.77 in Calm   2 mph 79% 0.00 in 0 W/m2
22:34 76.4 °F 69.6 °F 29.77 in Calm   2 mph 79.6% 0.00 in 0 W/m2
22:39 76.2 °F 69.6 °F 29.76 in Calm     80% 0.00 in 0 W/m2
22:44 76.1 °F 69.5 °F 29.76 in Calm     80% 0.00 in 0 W/m2
22:49 76 °F 69.4 °F 29.76 in Calm     80% 0.00 in 0 W/m2
22:54 75.9 °F 69.3 °F 29.76 in Calm     80% 0.00 in 0 W/m2
22:59 75.7 °F 69.4 °F 29.76 in Calm     80.6% 0.00 in 0 W/m2
23:04 75.6 °F 69.4 °F 29.75 in Calm     81% 0.00 in 0 W/m2
23:09 75.5 °F 69.3 °F 29.75 in Calm   1 mph 81% 0.00 in 0 W/m2
23:14 75.4 °F 69.2 °F 29.75 in Calm   1 mph 81.2% 0.00 in 0 W/m2
23:19 75.2 °F 69.1 °F 29.76 in Calm   1 mph 81.2% 0.00 in 0 W/m2
23:24 75.1 °F 69.3 °F 29.76 in Calm   1 mph 82% 0.00 in 0 W/m2
23:29 75 °F 69.2 °F 29.76 in Calm   1 mph 82% 0.00 in 0 W/m2
23:34 74.9 °F 69.1 °F 29.76 in Calm   1 mph 82.1% 0.00 in 0 W/m2
23:39 74.8 °F 69.3 °F 29.75 in Calm     83% 0.00 in 0 W/m2
23:44 74.7 °F 69.2 °F 29.76 in Calm     83% 0.00 in 0 W/m2
23:49 74.6 °F 69.1 °F 29.76 in Calm     83% 0.00 in 0 W/m2
23:54 74.5 °F 69 °F 29.75 in Calm     83% 0.00 in 0 W/m2
23:59 74.4 °F 68.9 °F 29.75 in Calm     83% 0.00 in 0 W/m2
Hartford County Weather
Compliments of Weather Underground - 4 mb